Latest Weather Observations for Redcliffe

IDQ60801

Issued at 10:32 pm EST Saturday 25 April 2015 (issued every 30 minutes, with the page automatically refreshed every 10 minutes)

About weather observations | Map of weather stations | Latest weather observations for QLD | Other Formats
Station Details ID: 040958 Name: REDCLIFFE Lat: -27.22 Lon: 153.09 Height: 12.6 m
Data from the previous 72 hours. | See also: Recent months at Redcliffe
Date/Time
EST
Temp
°C
App
Temp
°C
Dew
Point
Rel
Hum
%
Delta-T
°C
Wind Press
QNH
hPa
Press
MSL
hPa
Rain
since 9 am
mm
Dir
 
Spd
km/h
Gust
km/h
Spd
kts
Gust
kts
25/10:30pm 20.9 20.9 16.3 75 2.8 NW 11 15 6 8 1009.6 1009.5 0.0
25/10:00pm 21.6 20.9 16.3 72 3.2 N 15 19 8 10 1009.7 1009.6 0.0
25/09:30pm 21.9 21.7 16.6 72 3.2 NNW 13 17 7 9 1009.9 1009.8 0.0
25/09:00pm 21.6 21.4 16.6 73 3.0 NNW 13 17 7 9 1009.9 1009.8 0.0
25/08:30pm 21.4 21.1 16.4 73 3.0 NW 13 15 7 8 1009.9 1009.8 0.0
25/08:00pm 22.2 21.6 16.7 71 3.4 NNW 15 19 8 10 1009.7 1009.6 0.0
25/07:30pm 22.6 22.5 16.9 70 3.5 NNW 13 19 7 10 1009.4 1009.3 0.0
25/07:00pm 22.8 23.0 17.7 73 3.2 NNW 13 19 7 10 1009.1 1009.0 0.0
25/06:30pm 23.2 22.5 17.4 70 3.6 N 17 20 9 11 1008.7 1008.6 0.0
25/06:00pm 23.5 22.0 16.3 64 4.4 NNE 19 20 10 11 1008.3 1008.2 0.0
25/05:30pm 23.9 21.8 15.1 58 5.3 NNE 20 26 11 14 1008.1 1008.0 0.0
25/05:00pm 24.5 21.7 14.3 53 6.0 NNE 22 26 12 14 1008.0 1007.9 0.0
25/04:30pm 25.4 22.3 11.6 42 7.8 NE 19 22 10 12 1007.8 1007.7 0.0
25/04:00pm 25.7 23.3 11.5 41 8.1 NE 15 19 8 10 1007.8 1007.7 0.0
25/03:30pm 25.7 23.3 11.5 41 8.1 ENE 15 17 8 9 1007.7 1007.6 0.0
25/03:00pm 26.4 24.0 11.3 39 8.6 ENE 15 17 8 9 1007.7 1007.6 0.0
25/02:30pm 26.4 23.9 10.9 38 8.7 ENE 15 17 8 9 1007.8 1007.7 0.0
25/02:00pm 26.8 24.1 10.5 36 9.2 ENE 15 17 8 9 1007.9 1007.8 0.0
25/01:30pm 25.9 23.4 10.9 39 8.4 ENE 15 17 8 9 1008.1 1008.0 0.0
25/01:00pm 26.6 25.0 14.0 46 7.5 E 15 15 8 8 1008.5 1008.4 0.0
25/12:30pm 26.1 24.5 12.9 44 7.7 ENE 13 13 7 7 1008.8 1008.7 0.0
25/12:00pm 26.2 25.1 13.0 44 7.7 ENE 11 11 6 6 1009.2 1009.1 0.0
25/11:30am 26.3 25.9 14.1 47 7.3 NE 9 11 5 6 1009.7 1009.6 0.0
25/11:00am 25.4 24.9 13.9 49 6.8 NE 9 11 5 6 1010.2 1010.1 0.0
25/10:30am 24.7 24.7 14.2 52 6.2 ENE 7 9 4 5 1010.5 1010.4 0.0
25/10:00am 23.8 23.8 14.2 55 5.7 ENE 7 9 4 5 1010.9 1010.8 0.0
25/09:30am 23.9 25.1 14.9 57 5.4 SW 2 6 1 3 1011.1 1011.0 0.0
25/09:00am 21.7 22.0 14.6 64 4.2 W 6 7 3 4 1011.2 1011.1 0.0
25/08:30am 20.2 20.7 13.9 67 3.6 SSW 4 7 2 4 1011.2 1011.1 0.0
25/08:00am 19.2 19.1 13.8 71 3.1 SSW 7 9 4 5 1011.0 1010.9 0.0
25/07:30am 17.6 17.3 14.5 82 1.8 SW 9 11 5 6 1011.0 1010.9 0.0
25/07:00am 16.8 16.6 14.8 88 1.2 SW 9 9 5 5 1010.8 1010.7 0.0
25/06:30am 15.9 15.9 14.3 90 0.9 SW 7 9 4 5 1010.3 1010.2 0.0
25/05:30am 15.7 15.6 13.9 89 1.0 SSW 7 9 4 5 1009.8 1009.7 0.0
25/05:00am 15.9 15.8 13.9 88 1.1 SW 7 9 4 5 1009.8 1009.7 0.0
25/04:30am 16.2 16.4 14.2 88 1.1 SW 6 7 3 4 1009.3 1009.2 0.0
25/04:00am 16.1 15.3 13.9 87 1.2 WSW 11 13 6 7 1009.4 1009.3 0.0
25/03:30am 16.2 16.1 13.9 86 1.3 SW 7 9 4 5 1009.4 1009.3 0.0
25/03:00am 16.4 15.9 13.9 85 1.4 SW 9 11 5 6 1009.4 1009.3 0.0
25/02:30am 17.1 17.2 14.4 84 1.5 WNW 7 9 4 5 1009.4 1009.3 0.0
25/02:00am 17.1 17.2 14.4 84 1.6 WNW 7 11 4 6 1009.5 1009.4 0.0
25/01:30am 17.1 17.2 14.4 84 1.5 WNW 7 11 4 6 1009.5 1009.4 0.0
25/01:00am 17.8 17.4 15.2 85 1.5 NW 11 13 6 7 1009.6 1009.5 0.0
25/12:30am 18.7 19.3 15.8 83 1.7 NW 7 9 4 5 1009.9 1009.8 0.0
25/12:00am 19.3 19.6 16.0 81 2.0 NNW 9 11 5 6 1010.0 1009.9 0.0
 
Date/Time
EST
Temp
°C
App
Temp
°C
Dew
Point
Rel
Hum
%
Delta-T
°C
Wind Press
QNH
hPa
Press
MSL
hPa
Rain
since 9 am
mm
Dir
 
Spd
km/h
Gust
km/h
Spd
kts
Gust
kts
24/11:30pm 19.7 19.5 15.6 77 2.4 NW 11 15 6 8 1010.1 1010.0 0.0
24/11:00pm 20.3 19.8 15.9 76 2.6 N 13 15 7 8 1010.0 1009.9 0.0
24/10:30pm 20.4 20.6 15.8 75 2.7 NNW 9 15 5 8 1010.0 1009.9 0.0
24/10:00pm 20.0 19.8 15.8 77 2.5 NNW 11 13 6 7 1010.2 1010.1 0.0
24/09:30pm 20.2 20.5 16.0 77 2.5 NW 9 11 5 6 1010.3 1010.2 0.0
24/09:00pm 20.1 20.4 15.9 77 2.5 NW 9 11 5 6 1010.2 1010.1 0.0
24/08:30pm 20.9 21.0 16.5 76 2.7 NNW 11 15 6 8 1010.1 1010.0 0.0
24/08:00pm 21.4 21.6 16.8 75 2.8 N 11 13 6 7 1009.8 1009.7 0.0
24/07:30pm 21.8 21.9 16.5 72 3.2 NNW 11 15 6 8 1009.6 1009.5 0.0
24/07:00pm 21.8 21.4 16.3 71 3.3 N 13 15 7 8 1009.3 1009.2 0.0
24/06:30pm 22.5 21.3 16.1 67 3.9 NNE 17 19 9 10 1009.0 1008.9 0.0
24/06:00pm 22.7 20.9 15.5 64 4.3 NNE 19 24 10 13 1008.6 1008.5 0.0
24/05:30pm 22.9 20.9 15.5 63 4.4 NNE 20 24 11 13 1008.2 1008.1 0.0
24/05:00pm 23.3 20.8 15.1 60 4.9 NE 22 26 12 14 1007.9 1007.8 0.0
24/04:30pm 23.7 21.5 14.9 57 5.2 NE 20 24 11 13 1007.8 1007.7 0.0
24/04:00pm 23.9 22.1 15.4 59 5.1 NE 19 22 10 12 1007.7 1007.6 0.0
24/03:30pm 24.6 23.3 14.7 54 5.9 NE 15 17 8 9 1007.7 1007.6 0.0
24/03:00pm 25.2 23.6 14.0 49 6.6 NE 15 17 8 9 1007.7 1007.6 0.0
24/02:30pm 24.9 23.1 14.4 52 6.2 NE 17 19 9 10 1007.7 1007.6 0.0
24/02:00pm 24.5 22.6 14.3 53 6.0 NE 17 19 9 10 1007.8 1007.7 0.0
24/01:30pm 25.8 24.2 14.0 48 7.0 NE 15 17 8 9 1008.2 1008.1 0.0
24/01:00pm 25.7 24.1 13.9 48 7.0 NE 15 17 8 9 1008.3 1008.2 0.0
24/12:30pm 25.1 23.9 13.9 49 6.6 E 13 13 7 7 1008.7 1008.6 0.0
24/12:00pm 24.5 24.1 15.1 55 5.6 ENE 11 13 6 7 1009.2 1009.1 0.0
24/11:30am 24.1 23.8 14.5 55 5.7 E 9 11 5 6 1009.6 1009.5 0.0
24/11:00am 23.7 23.5 13.6 53 5.9 ENE 7 9 4 5 1010.4 1010.3 0.0
24/10:30am 23.7 23.9 14.7 57 5.3 NE 7 9 4 5 1010.9 1010.8 0.0
24/10:00am 22.7 22.7 15.3 63 4.4 ESE 9 11 5 6 1011.0 1010.9 0.0
24/09:30am 23.4 23.2 13.6 54 5.7 SE 7 11 4 6 1011.0 1010.9 0.0
24/09:00am 20.9 20.4 13.8 64 4.1 WSW 9 13 5 7 1011.1 1011.0 0.0
24/08:30am 19.4 18.8 13.6 69 3.3 WSW 9 11 5 6 1011.3 1011.2 0.0
24/08:00am 19.0 18.6 14.1 73 2.8 WSW 9 11 5 6 1011.0 1010.9 0.0
24/07:30am 17.4 17.2 13.5 78 2.2 SW 7 9 4 5 1011.1 1011.0 0.0
24/07:00am 16.5 16.4 13.4 82 1.7 WSW 6 9 3 5 1010.6 1010.5 0.0
24/06:30am 16.0 15.3 13.1 83 1.6 WSW 9 11 5 6 1010.6 1010.5 0.0
24/06:00am 15.7 15.3 13.0 84 1.5 W 7 9 4 5 1010.2 1010.1 0.0
24/05:30am 15.7 15.4 12.6 82 1.7 WSW 6 7 3 4 1010.0 1009.9 0.0
24/05:00am 15.9 15.4 12.8 82 1.7 SW 7 9 4 5 1009.9 1009.8 0.0
24/04:30am 16.2 17.1 12.9 81 1.8 CALM 0 6 0 3 1009.7 1009.6 0.0
24/04:00am 16.2 15.9 12.6 79 2.0 SW 6 7 3 4 1009.9 1009.8 0.0
24/03:30am 16.3 15.0 12.5 78 2.1 W 11 13 6 7 1009.9 1009.8 0.0
24/03:00am 16.2 14.9 12.4 78 2.1 WNW 11 13 6 7 1009.7 1009.6 0.0
24/02:30am 16.2 14.9 12.6 79 2.0 W 11 13 6 7 1010.0 1009.9 0.0
24/02:00am 16.2 15.0 12.7 80 1.9 W 11 13 6 7 1010.1 1010.0 0.0
24/01:30am 16.6 15.8 12.9 79 2.1 W 9 11 5 6 1010.3 1010.2 0.0
24/01:00am 16.8 16.0 12.9 78 2.2 W 9 11 5 6 1010.7 1010.6 0.0
24/12:30am 17.0 16.2 12.9 77 2.3 W 9 11 5 6 1010.7 1010.6 0.0
24/12:00am 17.0 16.1 12.5 75 2.5 W 9 11 5 6 1010.9 1010.8 0.0
 
Date/Time
EST
Temp
°C
App
Temp
°C
Dew
Point
Rel
Hum
%
Delta-T
°C
Wind Press
QNH
hPa
Press
MSL
hPa
Rain
since 9 am
mm
Dir
 
Spd
km/h
Gust
km/h
Spd
kts
Gust
kts
23/11:30pm 16.9 16.1 12.8 77 2.3 W 9 11 5 6 1011.1 1011.0 0.0
23/11:00pm 16.9 15.8 13.0 78 2.2 W 11 13 6 7 1011.3 1011.2 0.0
23/10:30pm 17.0 16.1 12.5 75 2.5 W 9 11 5 6 1011.4 1011.3 0.0
23/10:00pm 17.2 16.1 12.1 72 2.8 W 9 11 5 6 1011.4 1011.3 0.0
23/09:30pm 17.7 16.5 11.5 67 3.4 W 9 11 5 6 1011.4 1011.3 0.0
23/09:00pm 18.0 16.9 11.8 67 3.4 W 9 11 5 6 1011.4 1011.3 0.0
23/08:30pm 18.5 17.6 12.5 68 3.3 NE 9 13 5 7 1011.3 1011.2 0.0
23/08:00pm 19.4 18.7 13.1 67 3.6 NE 9 11 5 6 1011.2 1011.1 0.0
23/07:30pm 20.4 19.4 13.4 64 4.0 ENE 11 13 6 7 1011.1 1011.0 0.0
23/07:00pm 20.5 19.0 13.2 63 4.2 E 13 15 7 8 1010.8 1010.7 0.0
23/06:30pm 20.7 19.2 11.9 57 4.9 E 11 15 6 8 1010.4 1010.3 0.0
23/06:00pm 20.9 18.7 10.7 52 5.6 E 13 15 7 8 1010.0 1009.9 0.0
23/05:30pm 21.2 19.4 10.7 51 5.7 E 11 13 6 7 1009.8 1009.7 0.0
23/05:00pm 21.8 20.0 10.9 50 6.0 ENE 11 13 6 7 1009.6 1009.5 0.0
23/04:30pm 22.1 19.9 10.9 49 6.2 E 13 15 7 8 1009.5 1009.4 0.0
23/04:00pm 22.3 19.6 10.5 47 6.5 ENE 15 19 8 10 1009.4 1009.3 0.0
23/03:30pm 22.7 20.1 10.8 47 6.6 ENE 15 17 8 9 1009.5 1009.4 0.0
23/03:00pm 22.6 20.4 10.7 47 6.6 E 13 17 7 9 1009.3 1009.2 0.0
23/02:30pm 22.7 20.4 10.5 46 6.7 E 13 17 7 9 1009.5 1009.4 0.0
23/02:00pm 22.5 19.8 11.6 50 6.1 ESE 17 19 9 10 1009.7 1009.6 0.0
23/01:30pm 23.5 21.0 10.9 45 7.0 ESE 15 19 8 10 1010.0 1009.9 0.0
23/01:00pm 24.4 21.9 11.0 43 7.5 SE 15 17 8 9 1010.4 1010.3 0.0
23/12:30pm 24.2 21.5 10.5 42 7.6 SSE 15 17 8 9 1011.1 1011.0 0.0
23/12:00pm 23.4 20.2 9.8 42 7.4 SSE 17 19 9 10 1011.5 1011.4 0.0
23/11:30am 23.2 20.9 10.6 45 7.0 SSE 13 15 7 8 1012.1 1012.0 0.0
23/11:00am 22.9 20.2 10.3 45 6.9 SSE 15 17 8 9 1012.4 1012.3 0.0
23/10:30am 22.6 20.3 11.7 50 6.1 S 15 17 8 9 1012.7 1012.6 0.0
23/10:00am 21.3 19.6 11.1 52 5.6 SSW 11 17 6 9 1013.0 1012.9 0.0
23/09:30am 20.8 18.5 11.7 56 5.1 SSW 15 19 8 10 1013.2 1013.1 0.0
23/09:00am 19.9 17.8 11.1 57 4.8 SSW 13 17 7 9 1013.2 1013.1 0.0
23/08:30am 17.9 16.2 11.2 65 3.6 WSW 11 15 6 8 1013.2 1013.1 0.0
23/08:00am 16.8 15.2 11.5 71 2.9 W 11 15 6 8 1013.1 1013.0 0.0
23/07:30am 15.4 13.6 11.0 75 2.3 WSW 11 15 6 8 1013.0 1012.9 0.0
23/07:00am 13.5 11.5 10.3 81 1.7 WSW 11 13 6 7 1012.9 1012.8 0.0
23/06:30am 12.7 11.1 10.1 84 1.3 W 9 11 5 6 1012.8 1012.7 0.0
23/06:00am 12.4 11.1 9.8 84 1.3 WSW 7 11 4 6 1012.5 1012.4 0.0
23/05:30am 12.7 10.9 9.5 81 1.6 WSW 9 11 5 6 1012.2 1012.1 0.0
23/05:00am 12.7 10.9 9.5 81 1.6 WSW 9 11 5 6 1011.8 1011.7 0.0
23/04:30am 13.0 11.8 9.6 80 1.7 WNW 6 11 3 6 1011.5 1011.4 0.0
23/04:00am 12.8 11.0 9.6 81 1.6 WNW 9 11 5 6 1011.4 1011.3 0.0
23/03:30am 13.2 11.4 9.6 79 1.8 WNW 9 13 5 7 1011.3 1011.2 0.0
23/03:00am 13.4 11.6 9.3 76 2.1 WNW 9 13 5 7 1011.3 1011.2 0.0
23/02:30am 13.8 11.6 9.3 74 2.3 W 11 15 6 8 1011.4 1011.3 0.0
23/02:00am 13.9 12.1 9.5 75 2.3 WNW 9 13 5 7 1011.8 1011.7 0.0
23/01:30am 13.7 12.0 9.9 78 2.0 WNW 9 11 5 6 1012.1 1012.0 0.0
23/01:00am 14.2 12.4 9.6 74 2.4 WNW 9 13 5 7 1012.4 1012.3 0.0
23/12:30am 14.3 11.7 9.5 73 2.5 W 13 15 7 8 1012.6 1012.5 0.0
23/12:00am 14.6 12.5 9.6 72 2.6 WNW 11 13 6 7 1012.8 1012.7 0.0
 
Date/Time
EST
Temp
°C
App
Temp
°C
Dew
Point
Rel
Hum
%
Delta-T
°C
Wind Press
QNH
hPa
Press
MSL
hPa
Rain
since 9 am
mm
Dir
 
Spd
km/h
Gust
km/h
Spd
kts
Gust
kts
22/11:30pm 14.8 12.7 9.8 72 2.6 WNW 11 13 6 7 1013.0 1012.9 0.0
22/11:00pm 15.4 13.4 10.0 70 2.8 WNW 11 13 6 7 1013.4 1013.3 0.0

Other Formats:

Comma delimited format used in spreadsheet applications
http://www.bom.gov.au/fwo/IDQ60801/IDQ60801.95591.axf

JavaScript Object Notation format (JSON) in row-major order
http://www.bom.gov.au/fwo/IDQ60801/IDQ60801.95591.json